Time;durP1;ratioP1;P1;durP2;ratioP2;P2;SDS_P1;SDS_P2;PMS_P1;PMS_P2;Temp;Humidity;BMP_temperature;BMP_pressure;BME280_temperature;BME280_humidity;BME280_pressure;Samples;Min_cycle;Max_cycle;Signal;HPM_P1;HPM_P2
2023/07/05 00:00:22;;;;;;;2.00;1.60;;;;;;;;;;5054756;28;20782;-80
2023/07/05 00:02:52;;;;;;;1.87;1.60;;;;;;;;;;5054978;28;20460;-80
2023/07/05 00:05:18;;;;;;;2.20;1.40;;;;;;;;;;5053743;28;20579;-80
2023/07/05 00:07:44;;;;;;;3.05;1.33;;;;;;;;;;5054879;28;20408;-80
2023/07/05 00:10:10;;;;;;;2.90;1.45;;;;;;;;;;5054572;28;20370;-80
2023/07/05 00:12:36;;;;;;;1.80;1.42;;;;;;;;;;5054702;28;20446;-80
2023/07/05 00:15:03;;;;;;;1.98;1.48;;;;;;;;;;5054192;28;20850;-80
2023/07/05 00:17:32;;;;;;;1.85;1.30;;;;;;;;;;5054163;28;20409;-80
2023/07/05 00:19:58;;;;;;;2.53;1.40;;;;;;;;;;5054411;28;20393;-80
2023/07/05 00:22:26;;;;;;;2.67;1.67;;;;;;;;;;5053012;28;20408;-80
2023/07/05 00:24:53;;;;;;;2.40;1.20;;;;;;;;;;5054406;28;20420;-80
2023/07/05 00:27:19;;;;;;;3.83;1.77;;;;;;;;;;5054063;28;20385;-80
2023/07/05 00:29:45;;;;;;;3.13;1.80;;;;;;;;;;5054211;28;20881;-80
2023/07/05 00:32:11;;;;;;;2.42;1.88;;;;;;;;;;5054181;28;20464;-80
2023/07/05 00:34:37;;;;;;;2.88;1.70;;;;;;;;;;5053951;28;20720;-80
2023/07/05 00:37:03;;;;;;;2.20;1.50;;;;;;;;;;5053992;28;20472;-80
2023/07/05 00:39:29;;;;;;;2.13;1.63;;;;;;;;;;5053912;28;20377;-80
2023/07/05 00:41:55;;;;;;;1.57;1.43;;;;;;;;;;5054072;28;20394;-80
2023/07/05 00:44:21;;;;;;;2.17;1.38;;;;;;;;;;5053995;28;20391;-80
2023/07/05 00:46:49;;;;;;;1.90;1.30;;;;;;;;;;5068165;22;20874;-92
2023/07/05 00:49:16;;;;;;;3.08;1.58;;;;;;;;;;5053025;28;20390;-91
2023/07/05 00:51:50;;;;;;;2.13;1.60;;;;;;;;;;5053932;28;20434;-90
2023/07/05 00:54:19;;;;;;;1.67;1.40;;;;;;;;;;5054099;28;20383;-90
2023/07/05 00:56:49;;;;;;;1.50;1.30;;;;;;;;;;5052266;28;20386;-90
2023/07/05 00:59:15;;;;;;;2.23;1.40;;;;;;;;;;5052316;28;20730;-92
2023/07/05 01:01:41;;;;;;;2.33;1.50;;;;;;;;;;5053807;28;20739;-93
2023/07/05 01:04:08;;;;;;;3.35;1.33;;;;;;;;;;5053925;28;20432;-91
2023/07/05 01:06:34;;;;;;;2.15;1.33;;;;;;;;;;5053937;28;20905;-91
2023/07/05 01:09:00;;;;;;;1.80;1.50;;;;;;;;;;5053764;28;20392;-92
2023/07/05 01:11:40;;;;;;;1.73;1.30;;;;;;;;;;5054035;28;20388;-92
2023/07/05 01:14:19;;;;;;;1.50;1.40;;;;;;;;;;5053644;28;20405;-93
2023/07/05 01:16:45;;;;;;;1.55;1.30;;;;;;;;;;5052778;28;20423;-94
2023/07/05 01:19:11;;;;;;;2.60;1.60;;;;;;;;;;5051813;28;20379;-91
2023/07/05 01:21:43;;;;;;;1.55;1.30;;;;;;;;;;5054111;28;20373;-92
2023/07/05 01:24:09;;;;;;;3.38;1.73;;;;;;;;;;5059935;28;20368;-93
2023/07/05 01:27:00;;;;;;;3.47;2.00;;;;;;;;;;5057764;28;20401;-93
2023/07/05 01:29:26;;;;;;;1.75;1.65;;;;;;;;;;5053676;28;20382;-92
2023/07/05 01:32:10;;;;;;;1.92;1.40;;;;;;;;;;5043896;28;20422;-90
2023/07/05 01:34:39;;;;;;;1.80;1.60;;;;;;;;;;5037410;28;20416;-91
2023/07/05 01:37:09;;;;;;;1.40;1.30;;;;;;;;;;5052989;28;20382;-90
2023/07/05 01:39:35;;;;;;;2.03;1.27;;;;;;;;;;5052860;28;20381;-90
2023/07/05 01:42:02;;;;;;;1.52;1.23;;;;;;;;;;5053383;28;20382;-90
2023/07/05 01:44:29;;;;;;;3.75;1.48;;;;;;;;;;5051646;28;20471;-92
2023/07/05 01:46:59;;;;;;;3.67;1.40;;;;;;;;;;5041247;28;20866;-90
2023/07/05 01:49:37;;;;;;;4.35;1.45;;;;;;;;;;5039720;28;20402;-89
2023/07/05 01:52:12;;;;;;;1.90;1.30;;;;;;;;;;5034417;28;20375;-91
2023/07/05 01:54:58;;;;;;;1.40;1.23;;;;;;;;;;5043445;28;20506;-90
2023/07/05 01:57:27;;;;;;;1.83;1.60;;;;;;;;;;5048465;28;20403;-92
2023/07/05 02:00:02;;;;;;;2.92;2.10;;;;;;;;;;5039366;28;20381;-90
2023/07/05 02:02:36;;;;;;;4.15;2.63;;;;;;;;;;5046829;28;20420;-91
2023/07/05 02:05:03;;;;;;;2.63;2.42;;;;;;;;;;5046127;28;20410;-89
2023/07/05 02:07:30;;;;;;;3.00;2.50;;;;;;;;;;5038783;28;20383;-90
2023/07/05 02:09:56;;;;;;;3.50;2.38;;;;;;;;;;5062885;28;20444;-90
2023/07/05 02:12:23;;;;;;;2.40;2.10;;;;;;;;;;5053674;28;20457;-92
2023/07/05 02:14:49;;;;;;;3.30;1.60;;;;;;;;;;5056875;28;20375;-88
2023/07/05 02:17:15;;;;;;;2.88;1.80;;;;;;;;;;5067968;28;20372;-89
2023/07/05 02:19:41;;;;;;;2.70;1.65;;;;;;;;;;5068861;28;20429;-90
2023/07/05 02:22:07;;;;;;;2.35;1.70;;;;;;;;;;5054295;28;20376;-89
2023/07/05 02:24:33;;;;;;;2.35;2.00;;;;;;;;;;5068800;28;20919;-90
2023/07/05 02:26:59;;;;;;;2.72;2.47;;;;;;;;;;5057132;28;20373;-89
2023/07/05 02:29:26;;;;;;;3.30;2.60;;;;;;;;;;5050202;28;20381;-90
2023/07/05 02:31:52;;;;;;;2.60;2.40;;;;;;;;;;5050912;28;20436;-89
2023/07/05 02:34:18;;;;;;;3.33;3.00;;;;;;;;;;5051973;28;20409;-89
2023/07/05 02:36:44;;;;;;;3.53;2.67;;;;;;;;;;5052179;28;20384;-93
2023/07/05 02:39:10;;;;;;;7.38;3.20;;;;;;;;;;5052834;28;20385;-92
2023/07/05 02:41:36;;;;;;;3.67;2.30;;;;;;;;;;5053150;28;20893;-91
2023/07/05 02:44:02;;;;;;;4.10;2.40;;;;;;;;;;5052677;28;20381;-91
2023/07/05 02:46:29;;;;;;;2.63;1.92;;;;;;;;;;5051593;28;20417;-91
2023/07/05 02:48:57;;;;;;;2.25;1.80;;;;;;;;;;5052132;28;20378;-91
2023/07/05 02:51:23;;;;;;;1.60;1.50;;;;;;;;;;5051970;28;20415;-90
2023/07/05 02:53:49;;;;;;;2.78;1.80;;;;;;;;;;5052153;28;20735;-89
2023/07/05 02:56:15;;;;;;;3.20;2.00;;;;;;;;;;5051733;28;20869;-90
2023/07/05 02:58:41;;;;;;;1.70;1.50;;;;;;;;;;5052053;28;20374;-89
2023/07/05 03:01:07;;;;;;;2.60;1.75;;;;;;;;;;5051984;28;20862;-90
2023/07/05 03:03:34;;;;;;;1.90;1.50;;;;;;;;;;5051751;28;20847;-89
2023/07/05 03:06:01;;;;;;;1.60;1.50;;;;;;;;;;5051318;28;20447;-90
2023/07/05 03:08:28;;;;;;;2.25;1.48;;;;;;;;;;5050391;28;20889;-88
2023/07/05 03:10:54;;;;;;;2.97;1.60;;;;;;;;;;5052010;28;20381;-89
2023/07/05 03:13:21;;;;;;;2.15;1.60;;;;;;;;;;5050343;28;20398;-90
2023/07/05 03:15:47;;;;;;;2.22;1.58;;;;;;;;;;5051639;28;20966;-89
2023/07/05 03:18:13;;;;;;;3.38;1.90;;;;;;;;;;5051594;28;20472;-90
2023/07/05 03:20:39;;;;;;;2.50;2.00;;;;;;;;;;5051432;28;20393;-90
2023/07/05 03:23:05;;;;;;;3.67;1.60;;;;;;;;;;5051637;28;20423;-89
2023/07/05 03:25:31;;;;;;;3.10;1.60;;;;;;;;;;5050321;28;20421;-89
2023/07/05 03:27:57;;;;;;;2.88;1.55;;;;;;;;;;5051495;28;20377;-91
2023/07/05 03:30:25;;;;;;;3.50;2.25;;;;;;;;;;5051585;28;20424;-89
2023/07/05 03:32:50;;;;;;;2.45;1.90;;;;;;;;;;5051432;28;20377;-91
2023/07/05 03:35:16;;;;;;;2.75;2.05;;;;;;;;;;5051475;28;20412;-91
2023/07/05 03:37:42;;;;;;;2.25;2.05;;;;;;;;;;5051321;28;20394;-89
2023/07/05 03:40:09;;;;;;;2.53;2.15;;;;;;;;;;5054045;28;20874;-90
2023/07/05 03:42:37;;;;;;;3.97;2.37;;;;;;;;;;5054950;28;20778;-90
2023/07/05 03:45:03;;;;;;;2.55;1.80;;;;;;;;;;5039741;28;20886;-89
2023/07/05 03:47:29;;;;;;;2.90;1.92;;;;;;;;;;5054289;28;20496;-91
2023/07/05 03:49:55;;;;;;;2.83;2.53;;;;;;;;;;5054932;28;20474;-89
2023/07/05 03:52:21;;;;;;;3.65;2.20;;;;;;;;;;5054637;28;20385;-90
2023/07/05 03:54:47;;;;;;;2.83;2.25;;;;;;;;;;5054940;28;20389;-88
2023/07/05 03:57:13;;;;;;;2.60;2.20;;;;;;;;;;5054933;28;20416;-89
2023/07/05 03:59:39;;;;;;;4.28;2.28;;;;;;;;;;5054808;28;20889;-89
2023/07/05 04:02:05;;;;;;;3.42;2.35;;;;;;;;;;5054727;28;20385;-88
2023/07/05 04:04:32;;;;;;;3.45;2.22;;;;;;;;;;5054798;28;20456;-89
2023/07/05 04:06:59;;;;;;;1.90;1.80;;;;;;;;;;5054453;28;20419;-90
2023/07/05 04:09:25;;;;;;;3.05;2.08;;;;;;;;;;5054810;28;20381;-89
2023/07/05 04:11:51;;;;;;;2.63;1.80;;;;;;;;;;5054514;28;20468;-89
2023/07/05 04:14:17;;;;;;;2.35;1.80;;;;;;;;;;5054498;28;20381;-89
2023/07/05 04:16:43;;;;;;;2.80;2.10;;;;;;;;;;5054062;28;20820;-89
2023/07/05 04:19:10;;;;;;;2.92;2.15;;;;;;;;;;5054181;28;20864;-93
2023/07/05 04:21:36;;;;;;;1.98;1.85;;;;;;;;;;5054813;28;20409;-90
2023/07/05 04:24:02;;;;;;;1.80;1.60;;;;;;;;;;5054375;28;20416;-90
2023/07/05 04:26:29;;;;;;;2.10;1.90;;;;;;;;;;5054195;28;20484;-89
2023/07/05 04:28:56;;;;;;;4.57;2.35;;;;;;;;;;5054301;28;20381;-90
2023/07/05 04:31:27;;;;;;;2.08;1.88;;;;;;;;;;5053310;28;20399;-90
2023/07/05 04:33:53;;;;;;;2.15;1.95;;;;;;;;;;5055594;28;20391;-90
2023/07/05 04:36:19;;;;;;;2.85;2.10;;;;;;;;;;5053598;28;20406;-90
2023/07/05 04:38:45;;;;;;;4.57;2.65;;;;;;;;;;5067258;28;20383;-89
2023/07/05 04:41:11;;;;;;;3.25;2.50;;;;;;;;;;5063429;28;20727;-90
2023/07/05 04:43:37;;;;;;;2.80;2.60;;;;;;;;;;5067164;28;20375;-89
2023/07/05 04:46:03;;;;;;;2.80;2.40;;;;;;;;;;5062507;28;20770;-90
2023/07/05 04:48:30;;;;;;;3.07;2.20;;;;;;;;;;5068196;28;20444;-91
2023/07/05 04:50:57;;;;;;;2.22;2.03;;;;;;;;;;5064441;28;20393;-91
2023/07/05 04:53:23;;;;;;;4.25;2.40;;;;;;;;;;5067642;28;20853;-91
2023/07/05 04:55:51;;;;;;;2.77;2.33;;;;;;;;;;5066861;28;20391;-90
2023/07/05 04:58:17;;;;;;;3.35;2.15;;;;;;;;;;5057039;28;20867;-90
2023/07/05 05:00:49;;;;;;;2.92;2.05;;;;;;;;;;5068441;28;20383;-91
2023/07/05 05:03:15;;;;;;;3.28;2.40;;;;;;;;;;5064540;28;20464;-91
2023/07/05 05:05:42;;;;;;;3.05;2.10;;;;;;;;;;5069119;28;20414;-91
2023/07/05 05:08:08;;;;;;;4.28;2.80;;;;;;;;;;5063478;28;20382;-90
2023/07/05 05:10:36;;;;;;;2.92;2.70;;;;;;;;;;5068550;28;20380;-89
2023/07/05 05:13:02;;;;;;;3.72;2.47;;;;;;;;;;5063067;28;20377;-92
2023/07/05 05:15:28;;;;;;;4.97;2.85;;;;;;;;;;5053631;28;20396;-94
2023/07/05 05:17:54;;;;;;;3.05;2.80;;;;;;;;;;5061253;28;20785;-89
2023/07/05 05:20:20;;;;;;;4.18;2.80;;;;;;;;;;5064808;28;20404;-89
2023/07/05 05:22:46;;;;;;;2.40;2.20;;;;;;;;;;5067045;28;20391;-91
2023/07/05 05:25:12;;;;;;;4.43;2.67;;;;;;;;;;5063280;28;20444;-91
2023/07/05 05:27:38;;;;;;;2.50;2.30;;;;;;;;;;5055453;28;20417;-90
2023/07/05 05:30:04;;;;;;;4.00;2.78;;;;;;;;;;5053179;28;20739;-91
2023/07/05 05:32:30;;;;;;;3.50;2.60;;;;;;;;;;5053127;28;20378;-91
2023/07/05 05:34:56;;;;;;;2.40;2.17;;;;;;;;;;5053529;28;20389;-89
2023/07/05 05:37:22;;;;;;;3.78;2.55;;;;;;;;;;5052818;28;20452;-90
2023/07/05 05:39:48;;;;;;;3.38;2.58;;;;;;;;;;5052798;28;20870;-90
2023/07/05 05:42:14;;;;;;;2.75;2.33;;;;;;;;;;5052508;28;20840;-89
2023/07/05 05:44:40;;;;;;;3.85;2.08;;;;;;;;;;5052488;28;20944;-90
2023/07/05 05:47:06;;;;;;;2.03;1.77;;;;;;;;;;5052780;28;20420;-90
2023/07/05 05:49:32;;;;;;;2.47;2.28;;;;;;;;;;5052718;28;20377;-90
2023/07/05 05:51:58;;;;;;;3.30;2.90;;;;;;;;;;5051461;28;20401;-89
2023/07/05 05:54:24;;;;;;;3.38;2.67;;;;;;;;;;5053081;28;20890;-89
2023/07/05 05:56:50;;;;;;;4.05;3.30;;;;;;;;;;5052834;28;20390;-91
2023/07/05 05:59:16;;;;;;;3.20;2.90;;;;;;;;;;5052281;28;20433;-90
2023/07/05 06:01:44;;;;;;;3.35;2.25;;;;;;;;;;5052416;28;20382;-91
2023/07/05 06:04:10;;;;;;;2.65;2.38;;;;;;;;;;5052785;28;20871;-90
2023/07/05 06:06:36;;;;;;;3.72;2.80;;;;;;;;;;5052345;28;20492;-93
2023/07/05 06:09:03;;;;;;;4.20;2.60;;;;;;;;;;5052518;28;20464;-89
2023/07/05 06:11:29;;;;;;;4.75;2.50;;;;;;;;;;5052662;28;20382;-92
2023/07/05 06:13:55;;;;;;;2.97;2.40;;;;;;;;;;5052538;28;20397;-90
2023/07/05 06:16:21;;;;;;;3.28;2.67;;;;;;;;;;5051913;28;20452;-92
2023/07/05 06:18:47;;;;;;;2.42;2.22;;;;;;;;;;5053378;28;20782;-92
2023/07/05 06:21:13;;;;;;;3.10;2.58;;;;;;;;;;5052563;28;20381;-92
2023/07/05 06:23:39;;;;;;;2.90;2.43;;;;;;;;;;5051766;28;20467;-92
2023/07/05 06:26:05;;;;;;;4.32;3.00;;;;;;;;;;5051543;28;20409;-91
2023/07/05 06:28:31;;;;;;;3.83;2.50;;;;;;;;;;5052477;28;20854;-91
2023/07/05 06:31:03;;;;;;;4.25;2.90;;;;;;;;;;5051158;28;20431;-88
2023/07/05 06:33:31;;;;;;;3.40;2.80;;;;;;;;;;5052321;28;20378;-90
2023/07/05 06:36:00;;;;;;;3.15;2.85;;;;;;;;;;5052578;28;20781;-92
2023/07/05 06:38:26;;;;;;;3.58;2.88;;;;;;;;;;5053060;28;20405;-91
2023/07/05 06:40:53;;;;;;;2.97;2.58;;;;;;;;;;5051943;28;20394;-93
2023/07/05 06:43:20;;;;;;;3.22;2.85;;;;;;;;;;5067010;28;20385;-92
2023/07/05 06:45:53;;;;;;;3.72;2.70;;;;;;;;;;5051600;28;20490;-92
2023/07/05 06:48:19;;;;;;;3.17;2.88;;;;;;;;;;5051586;28;20468;-92
2023/07/05 06:50:52;;;;;;;3.38;2.28;;;;;;;;;;5052140;28;20388;-92
2023/07/05 06:53:19;;;;;;;5.45;2.60;;;;;;;;;;5052349;28;20392;-92
2023/07/05 06:55:47;;;;;;;5.05;2.75;;;;;;;;;;5051324;28;20404;-93
2023/07/05 06:58:13;;;;;;;5.47;3.15;;;;;;;;;;5037647;28;20391;-92
2023/07/05 07:00:39;;;;;;;4.10;2.90;;;;;;;;;;5052349;28;20389;-93
2023/07/05 07:03:05;;;;;;;5.22;3.42;;;;;;;;;;5053039;28;20476;-92
2023/07/05 07:05:31;;;;;;;3.38;3.05;;;;;;;;;;5051289;28;20511;-93
2023/07/05 07:07:57;;;;;;;3.22;2.85;;;;;;;;;;5053402;28;20377;-91
2023/07/05 07:10:23;;;;;;;3.88;3.25;;;;;;;;;;5032985;28;20383;-93
2023/07/05 07:12:49;;;;;;;3.42;2.70;;;;;;;;;;5053444;28;20380;-93
2023/07/05 07:15:15;;;;;;;3.13;2.42;;;;;;;;;;5065345;28;20383;-92
2023/07/05 07:17:41;;;;;;;4.47;2.83;;;;;;;;;;5056580;28;20959;-93
2023/07/05 07:20:08;;;;;;;3.42;3.13;;;;;;;;;;5056193;28;20389;-93
2023/07/05 07:22:34;;;;;;;4.47;3.30;;;;;;;;;;5056586;28;20435;-92
2023/07/05 07:25:00;;;;;;;3.25;2.95;;;;;;;;;;5055941;28;20467;-92
2023/07/05 07:27:26;;;;;;;4.38;3.10;;;;;;;;;;5055487;28;20374;-93
2023/07/05 07:29:53;;;;;;;4.03;3.00;;;;;;;;;;5056353;28;20399;-92
2023/07/05 07:32:19;;;;;;;2.97;2.77;;;;;;;;;;5056442;28;20386;-93
2023/07/05 07:34:45;;;;;;;4.65;2.92;;;;;;;;;;5055179;28;20858;-92
2023/07/05 07:37:11;;;;;;;4.78;2.63;;;;;;;;;;5055582;28;20483;-92
2023/07/05 07:39:37;;;;;;;2.97;2.67;;;;;;;;;;5055707;28;20851;-93
2023/07/05 07:42:03;;;;;;;2.92;2.60;;;;;;;;;;5055871;28;20392;-93
2023/07/05 07:44:29;;;;;;;2.90;2.45;;;;;;;;;;5055304;28;20877;-89
2023/07/05 07:46:57;;;;;;;4.35;2.13;;;;;;;;;;5055022;28;20421;-91
2023/07/05 07:49:23;;;;;;;2.60;2.40;;;;;;;;;;5055091;28;20377;-91
2023/07/05 07:51:49;;;;;;;2.20;2.00;;;;;;;;;;5055438;28;20378;-90
2023/07/05 07:54:20;;;;;;;2.65;1.85;;;;;;;;;;5055455;28;20377;-91
2023/07/05 07:56:47;;;;;;;2.40;1.88;;;;;;;;;;5054865;28;20393;-91
2023/07/05 07:59:14;;;;;;;2.90;1.73;;;;;;;;;;5055161;28;20476;-91
2023/07/05 08:01:41;;;;;;;2.03;1.60;;;;;;;;;;5054994;28;20863;-90
2023/07/05 08:04:09;;;;;;;2.72;1.90;;;;;;;;;;5054742;28;20393;-90
2023/07/05 08:06:42;;;;;;;1.98;1.75;;;;;;;;;;5054763;28;20417;-91
2023/07/05 08:09:10;;;;;;;3.40;1.53;;;;;;;;;;5054896;28;20395;-91
2023/07/05 08:11:36;;;;;;;2.45;1.55;;;;;;;;;;5054278;28;20380;-92
2023/07/05 08:14:03;;;;;;;2.38;1.65;;;;;;;;;;5055234;28;20460;-90
2023/07/05 08:16:29;;;;;;;2.15;1.20;;;;;;;;;;5053791;28;20398;-91
2023/07/05 08:18:57;;;;;;;1.52;1.30;;;;;;;;;;5053473;28;20750;-90
2023/07/05 08:21:23;;;;;;;1.65;1.30;;;;;;;;;;5055066;28;20388;-92
2023/07/05 08:23:49;;;;;;;1.10;1.00;;;;;;;;;;5054490;28;20738;-90
2023/07/05 08:26:15;;;;;;;1.80;1.20;;;;;;;;;;5053237;28;21005;-92
2023/07/05 08:28:41;;;;;;;2.55;1.45;;;;;;;;;;5054526;28;20455;-91
2023/07/05 08:31:08;;;;;;;1.60;1.30;;;;;;;;;;5053104;28;20893;-91
2023/07/05 08:33:35;;;;;;;1.30;1.20;;;;;;;;;;5054721;28;20381;-90
2023/07/05 08:36:07;;;;;;;1.08;0.90;;;;;;;;;;5052899;28;20432;-90
2023/07/05 08:38:33;;;;;;;2.00;1.03;;;;;;;;;;5053186;28;20554;-90
2023/07/05 08:41:16;;;;;;;1.35;1.08;;;;;;;;;;5054276;28;20423;-92
2023/07/05 08:43:45;;;;;;;1.38;1.13;;;;;;;;;;5054364;28;20388;-92
2023/07/05 08:46:12;;;;;;;1.02;0.90;;;;;;;;;;5053847;28;20425;-90
2023/07/05 08:48:38;;;;;;;1.35;0.90;;;;;;;;;;5052966;28;20378;-90
2023/07/05 08:51:05;;;;;;;1.90;1.00;;;;;;;;;;5054229;28;20777;-90
2023/07/05 08:53:32;;;;;;;1.88;0.98;;;;;;;;;;5052150;28;20382;-90
2023/07/05 08:56:01;;;;;;;1.27;0.90;;;;;;;;;;5054078;28;20381;-89
2023/07/05 08:58:33;;;;;;;0.82;0.80;;;;;;;;;;5054551;28;20871;-93
2023/07/05 09:01:05;;;;;;;0.88;0.80;;;;;;;;;;5054729;28;20390;-92
2023/07/05 09:03:31;;;;;;;1.80;0.80;;;;;;;;;;5056536;28;20428;-91
2023/07/05 09:06:10;;;;;;;0.95;0.80;;;;;;;;;;5053241;28;20409;-90
2023/07/05 09:08:36;;;;;;;1.00;0.80;;;;;;;;;;5053920;28;20508;-89
2023/07/05 09:11:09;;;;;;;1.00;0.90;;;;;;;;;;5054039;28;20472;-92
2023/07/05 09:13:35;;;;;;;1.40;0.75;;;;;;;;;;5057188;28;20378;-88
2023/07/05 09:16:01;;;;;;;1.65;0.73;;;;;;;;;;5054566;28;20855;-89
2023/07/05 09:18:35;;;;;;;1.83;0.80;;;;;;;;;;5054624;28;20873;-89
2023/07/05 09:21:20;;;;;;;0.70;0.70;;;;;;;;;;5053408;28;20385;-89
2023/07/05 09:23:49;;;;;;;1.65;0.70;;;;;;;;;;5054513;28;20411;-89
2023/07/05 09:26:22;;;;;;;1.60;0.70;;;;;;;;;;5055177;28;20432;-89
2023/07/05 09:28:50;;;;;;;0.70;0.70;;;;;;;;;;5054386;28;20389;-90
2023/07/05 09:31:17;;;;;;;1.02;0.75;;;;;;;;;;5052843;28;20645;-91
2023/07/05 09:33:47;;;;;;;1.05;0.80;;;;;;;;;;5053416;28;20407;-90
2023/07/05 09:36:23;;;;;;;1.30;0.70;;;;;;;;;;5052458;28;20381;-91
2023/07/05 09:38:59;;;;;;;1.38;0.75;;;;;;;;;;5051953;28;20410;-89
2023/07/05 09:41:55;;;;;;;0.70;0.57;;;;;;;;;;5051522;28;20389;-90
2023/07/05 09:44:21;;;;;;;0.85;0.70;;;;;;;;;;5051238;22;20445;-80
2023/07/05 09:46:47;;;;;;;0.70;0.60;;;;;;;;;;5072771;28;20490;-79
2023/07/05 09:49:14;;;;;;;1.75;0.75;;;;;;;;;;5072743;28;20758;-79
2023/07/05 09:51:44;;;;;;;1.20;0.60;;;;;;;;;;5072535;28;20383;-80
2023/07/05 09:54:25;;;;;;;2.13;0.85;;;;;;;;;;5054693;28;20380;-80
2023/07/05 09:56:58;;;;;;;0.77;0.60;;;;;;;;;;5054621;28;20383;-79
2023/07/05 09:59:24;;;;;;;1.13;0.50;;;;;;;;;;5072586;28;20376;-80
2023/07/05 10:01:53;;;;;;;1.10;0.70;;;;;;;;;;5060563;28;20910;-80
2023/07/05 10:04:24;;;;;;;0.90;0.63;;;;;;;;;;5061936;28;20413;-80
2023/07/05 10:06:50;;;;;;;0.65;0.50;;;;;;;;;;5069919;28;20407;-79
2023/07/05 10:09:21;;;;;;;0.95;0.70;;;;;;;;;;5063819;28;20418;-79
2023/07/05 10:11:56;;;;;;;1.30;0.55;;;;;;;;;;5066965;28;20446;-79
2023/07/05 10:14:27;;;;;;;0.60;0.60;;;;;;;;;;5063769;28;20425;-79
2023/07/05 10:16:57;;;;;;;0.60;0.60;;;;;;;;;;5058227;28;20388;-79
2023/07/05 10:19:24;;;;;;;1.02;0.73;;;;;;;;;;5072598;28;20384;-79
2023/07/05 10:21:56;;;;;;;1.10;0.77;;;;;;;;;;5060390;28;20385;-80
2023/07/05 10:24:22;;;;;;;1.02;0.70;;;;;;;;;;5058384;28;20463;-79
2023/07/05 10:26:49;;;;;;;1.13;0.68;;;;;;;;;;5064003;28;20410;-80
2023/07/05 10:29:19;;;;;;;1.40;0.80;;;;;;;;;;5066292;28;20387;-81
2023/07/05 10:31:51;;;;;;;0.90;0.80;;;;;;;;;;5051885;28;20401;-80
2023/07/05 10:34:23;;;;;;;1.00;0.80;;;;;;;;;;5051845;28;20374;-80
2023/07/05 10:36:49;;;;;;;2.03;0.80;;;;;;;;;;5051807;28;20380;-80
2023/07/05 10:39:23;;;;;;;1.02;0.90;;;;;;;;;;5051924;28;20918;-80
2023/07/05 10:41:51;;;;;;;0.80;0.80;;;;;;;;;;5051777;28;20389;-79
2023/07/05 10:44:22;;;;;;;1.92;0.80;;;;;;;;;;5051535;28;20951;-80
2023/07/05 10:46:48;;;;;;;1.27;0.90;;;;;;;;;;5051622;28;20432;-79
2023/07/05 10:49:16;;;;;;;0.83;0.70;;;;;;;;;;5052461;28;20382;-79
2023/07/05 10:51:44;;;;;;;0.68;0.68;;;;;;;;;;5055406;28;20387;-80
2023/07/05 10:54:28;;;;;;;2.90;0.80;;;;;;;;;;5055029;28;20389;-79
2023/07/05 10:56:55;;;;;;;1.10;0.70;;;;;;;;;;5055251;28;20774;-79
2023/07/05 10:59:25;;;;;;;0.93;0.65;;;;;;;;;;5055886;28;20454;-79
2023/07/05 11:02:15;;;;;;;1.42;0.85;;;;;;;;;;5036576;28;20377;-80
2023/07/05 11:04:43;;;;;;;1.70;0.70;;;;;;;;;;5013083;28;20387;-79
2023/07/05 11:07:12;;;;;;;1.50;0.80;;;;;;;;;;5055777;28;20409;-80
2023/07/05 11:09:40;;;;;;;2.33;0.98;;;;;;;;;;5055598;28;20385;-80
2023/07/05 11:12:13;;;;;;;1.10;0.80;;;;;;;;;;5054591;28;20455;-80
2023/07/05 11:14:39;;;;;;;1.25;1.10;;;;;;;;;;5047251;28;20374;-80
2023/07/05 11:17:06;;;;;;;1.05;0.82;;;;;;;;;;5055597;28;20384;-79
2023/07/05 11:19:32;;;;;;;0.85;0.85;;;;;;;;;;5055317;28;20408;-80
2023/07/05 11:22:00;;;;;;;1.40;0.90;;;;;;;;;;5055526;28;20389;-79
2023/07/05 11:24:32;;;;;;;0.90;0.85;;;;;;;;;;5055196;28;20377;-80
2023/07/05 11:26:59;;;;;;;0.98;0.95;;;;;;;;;;5055193;28;20409;-80
2023/07/05 11:29:45;;;;;;;1.40;0.90;;;;;;;;;;5054693;28;20385;-79
2023/07/05 11:32:11;;;;;;;1.30;1.02;;;;;;;;;;5052003;28;20435;-79
2023/07/05 11:34:41;;;;;;;1.00;0.90;;;;;;;;;;5054627;28;20377;-79
2023/07/05 11:37:10;;;;;;;1.50;1.02;;;;;;;;;;5055194;28;20389;-79
2023/07/05 11:39:46;;;;;;;2.10;1.20;;;;;;;;;;5054822;28;20389;-79
2023/07/05 11:42:15;;;;;;;2.45;1.27;;;;;;;;;;5054945;28;20378;-79
2023/07/05 11:44:45;;;;;;;1.45;1.35;;;;;;;;;;5053822;28;20457;-78
2023/07/05 11:47:23;;;;;;;1.60;1.45;;;;;;;;;;5055105;28;20389;-78
2023/07/05 11:49:53;;;;;;;1.60;1.50;;;;;;;;;;5052328;28;20896;-78
2023/07/05 11:52:27;;;;;;;4.05;1.75;;;;;;;;;;5055036;28;20770;-78
2023/07/05 11:55:13;;;;;;;1.70;1.60;;;;;;;;;;5054609;28;20393;-80
2023/07/05 11:57:51;;;;;;;1.90;1.80;;;;;;;;;;5054311;28;20450;-79
2023/07/05 12:00:18;;;;;;;1.90;1.80;;;;;;;;;;5034829;28;20468;-79
2023/07/05 12:02:57;;;;;;;2.00;1.90;;;;;;;;;;5051310;28;20369;-79
2023/07/05 12:05:25;;;;;;;2.00;1.80;;;;;;;;;;5054506;28;20975;-78
2023/07/05 12:08:17;;;;;;;2.38;1.90;;;;;;;;;;5054689;28;20464;-78
2023/07/05 12:10:54;;;;;;;2.35;2.15;;;;;;;;;;5042851;28;20396;-78
2023/07/05 12:13:21;;;;;;;2.45;2.15;;;;;;;;;;5053067;28;20383;-78
2023/07/05 12:15:47;;;;;;;2.60;2.40;;;;;;;;;;5054544;28;20765;-78
2023/07/05 12:18:14;;;;;;;2.92;2.50;;;;;;;;;;5054453;28;20373;-79
2023/07/05 12:20:42;;;;;;;3.42;2.70;;;;;;;;;;5054385;28;20455;-79
2023/07/05 12:23:15;;;;;;;3.10;2.50;;;;;;;;;;5054288;28;20392;-79
2023/07/05 12:25:42;;;;;;;2.80;2.60;;;;;;;;;;5054287;28;20401;-80
2023/07/05 12:28:37;;;;;;;3.70;2.80;;;;;;;;;;5061118;28;20402;-79
2023/07/05 12:31:08;;;;;;;4.18;2.80;;;;;;;;;;5021904;28;20395;-79
2023/07/05 12:33:35;;;;;;;3.10;2.90;;;;;;;;;;5074260;28;20380;-80
2023/07/05 12:36:11;;;;;;;3.25;3.05;;;;;;;;;;5072452;28;20394;-79
2023/07/05 12:38:38;;;;;;;3.23;2.93;;;;;;;;;;5063196;28;20376;-80
2023/07/05 12:41:07;;;;;;;3.87;2.90;;;;;;;;;;5060009;28;20878;-79
2023/07/05 12:43:33;;;;;;;3.22;2.95;;;;;;;;;;5073938;28;20396;-78
2023/07/05 12:46:08;;;;;;;3.83;2.80;;;;;;;;;;5060173;28;20411;-79
2023/07/05 12:48:34;;;;;;;3.30;3.00;;;;;;;;;;5047781;28;20891;-79
2023/07/05 12:51:11;;;;;;;2.90;2.63;;;;;;;;;;5074043;28;20371;-79
2023/07/05 12:53:37;;;;;;;3.20;2.90;;;;;;;;;;5066823;28;20392;-79
2023/07/05 12:56:08;;;;;;;3.47;3.17;;;;;;;;;;5066656;28;20403;-79
2023/07/05 12:58:34;;;;;;;3.30;3.00;;;;;;;;;;5073625;28;20445;-79
2023/07/05 13:01:00;;;;;;;3.15;2.75;;;;;;;;;;5062374;28;20412;-80
2023/07/05 13:03:27;;;;;;;2.60;2.40;;;;;;;;;;5067561;28;20386;-79
2023/07/05 13:05:54;;;;;;;4.60;2.90;;;;;;;;;;5063180;28;20407;-79
2023/07/05 13:08:20;;;;;;;2.90;2.60;;;;;;;;;;5073436;28;20387;-79
2023/07/05 13:10:46;;;;;;;3.00;2.80;;;;;;;;;;5065861;28;20381;-79
2023/07/05 13:13:33;;;;;;;2.80;2.60;;;;;;;;;;5058130;28;20388;-78
2023/07/05 13:16:17;;;;;;;3.25;2.90;;;;;;;;;;5042015;28;20373;-79
2023/07/05 13:18:54;;;;;;;3.40;2.50;;;;;;;;;;5070448;28;20386;-79
2023/07/05 13:21:20;;;;;;;3.63;2.85;;;;;;;;;;5073637;28;20797;-78
2023/07/05 13:23:47;;;;;;;3.35;2.95;;;;;;;;;;5073545;28;20467;-78
2023/07/05 13:26:26;;;;;;;3.50;2.90;;;;;;;;;;5064277;28;20763;-78
2023/07/05 13:28:53;;;;;;;3.33;3.00;;;;;;;;;;5066657;28;20418;-79
2023/07/05 13:31:20;;;;;;;3.03;2.83;;;;;;;;;;5058453;28;20471;-78
2023/07/05 13:33:46;;;;;;;3.63;2.80;;;;;;;;;;5073221;28;20839;-78
2023/07/05 13:36:12;;;;;;;2.80;2.60;;;;;;;;;;5068212;28;20400;-78
2023/07/05 13:38:39;;;;;;;3.70;3.25;;;;;;;;;;5051558;28;20379;-78
2023/07/05 13:41:06;;;;;;;3.50;3.20;;;;;;;;;;5071566;28;20380;-79
2023/07/05 13:43:33;;;;;;;3.47;3.17;;;;;;;;;;5060141;28;20495;-78
2023/07/05 13:46:01;;;;;;;4.28;3.10;;;;;;;;;;5072938;28;20892;-79
2023/07/05 13:48:27;;;;;;;3.85;3.40;;;;;;;;;;5072825;28;20375;-78
2023/07/05 13:50:53;;;;;;;3.20;2.90;;;;;;;;;;5072702;28;20884;-78
2023/07/05 13:53:20;;;;;;;3.25;2.92;;;;;;;;;;5072599;28;20376;-79
2023/07/05 13:55:46;;;;;;;4.55;3.20;;;;;;;;;;5072616;28;20411;-79
2023/07/05 13:58:14;;;;;;;4.30;3.35;;;;;;;;;;5072499;28;20381;-79
2023/07/05 14:00:40;;;;;;;3.47;3.20;;;;;;;;;;5050146;28;20392;-79
2023/07/05 14:03:06;;;;;;;3.35;3.05;;;;;;;;;;5052589;28;20392;-78
2023/07/05 14:05:32;;;;;;;3.75;3.35;;;;;;;;;;5052414;28;20781;-78
2023/07/05 14:08:00;;;;;;;3.47;3.17;;;;;;;;;;5043347;28;20387;-78
2023/07/05 14:10:28;;;;;;;3.50;3.20;;;;;;;;;;5046244;28;20378;-79
2023/07/05 14:12:54;;;;;;;3.70;3.40;;;;;;;;;;5052436;28;20377;-78
2023/07/05 14:15:37;;;;;;;3.55;3.25;;;;;;;;;;5052075;28;20822;-78
2023/07/05 14:18:03;;;;;;;3.60;3.30;;;;;;;;;;5052234;28;20855;-78
2023/07/05 14:20:34;;;;;;;3.70;3.40;;;;;;;;;;5052271;28;20389;-79
2023/07/05 14:23:00;;;;;;;4.20;3.25;;;;;;;;;;5052183;28;20385;-79
2023/07/05 14:25:27;;;;;;;3.45;3.25;;;;;;;;;;5051948;28;20428;-79
2023/07/05 14:27:53;;;;;;;3.67;3.37;;;;;;;;;;5052224;28;20413;-79
2023/07/05 14:30:19;;;;;;;3.97;3.13;;;;;;;;;;5052196;28;20381;-78
2023/07/05 14:32:45;;;;;;;3.38;3.08;;;;;;;;;;5051870;28;20460;-79
2023/07/05 14:35:15;;;;;;;4.28;2.90;;;;;;;;;;5052332;28;20409;-79
2023/07/05 14:37:45;;;;;;;3.00;2.80;;;;;;;;;;5051944;28;20386;-79
2023/07/05 14:40:11;;;;;;;3.15;2.85;;;;;;;;;;5052102;28;20374;-78
2023/07/05 14:42:37;;;;;;;3.47;3.17;;;;;;;;;;5051683;28;20401;-78
2023/07/05 14:45:03;;;;;;;3.67;3.38;;;;;;;;;;5051742;28;20452;-79
2023/07/05 14:47:29;;;;;;;2.80;2.60;;;;;;;;;;5052040;28;20477;-78
2023/07/05 14:49:55;;;;;;;3.40;2.90;;;;;;;;;;5051999;28;20950;-79